createdAt,value
2019-02-12T00:00:07.975Z,0.00
2019-02-12T00:01:07.989Z,0.00
2019-02-12T00:02:07.954Z,0.00
2019-02-12T00:03:07.944Z,0.00
2019-02-12T00:04:07.948Z,0.00
2019-02-12T00:05:07.922Z,0.00
2019-02-12T00:06:07.936Z,0.00
2019-02-12T00:07:07.905Z,0.00
2019-02-12T00:08:07.895Z,0.00
2019-02-12T00:09:07.878Z,0.00
2019-02-12T00:10:07.880Z,0.00
2019-02-12T00:11:07.876Z,0.00
2019-02-12T00:12:07.864Z,0.00
2019-02-12T00:13:07.837Z,0.00
2019-02-12T00:14:07.824Z,0.00
2019-02-12T00:15:07.810Z,0.00
2019-02-12T00:16:07.849Z,0.00
2019-02-12T00:17:07.785Z,0.00
2019-02-12T00:18:07.777Z,0.00
2019-02-12T00:19:07.765Z,0.00
2019-02-12T00:20:07.752Z,0.00
2019-02-12T00:21:09.391Z,0.00
2019-02-12T00:22:07.760Z,0.00
2019-02-12T00:23:07.719Z,0.00
2019-02-12T00:24:07.708Z,0.00
2019-02-12T00:25:07.699Z,0.00
2019-02-12T00:26:07.709Z,0.00
2019-02-12T00:27:07.674Z,0.00
2019-02-12T00:28:07.675Z,0.00
2019-02-12T00:29:07.657Z,0.00
2019-02-12T00:30:07.645Z,0.00
2019-02-12T00:31:07.655Z,0.00
2019-02-12T00:32:07.621Z,0.00
2019-02-12T00:33:07.608Z,0.00
2019-02-12T00:34:07.609Z,0.00
2019-02-12T00:35:07.593Z,0.00
2019-02-12T00:36:07.605Z,0.00
2019-02-12T00:37:07.563Z,0.00
2019-02-12T00:38:07.557Z,0.00
2019-02-12T00:39:07.551Z,0.00
2019-02-12T00:40:07.531Z,0.00
2019-02-12T00:41:07.554Z,0.00
2019-02-12T00:42:07.508Z,0.00
2019-02-12T00:43:07.497Z,0.00
2019-02-12T00:44:07.489Z,0.00
2019-02-12T00:45:07.475Z,0.00
2019-02-12T00:46:07.487Z,0.00
2019-02-12T00:47:07.458Z,0.00
2019-02-12T00:48:07.443Z,0.00
2019-02-12T00:49:07.436Z,0.00
2019-02-12T00:50:07.422Z,0.00
2019-02-12T00:51:07.434Z,0.00
2019-02-12T00:52:07.400Z,0.00
2019-02-12T00:53:07.394Z,0.00
2019-02-12T00:54:07.404Z,0.00
2019-02-12T00:55:07.368Z,0.00
2019-02-12T00:56:07.399Z,0.00
2019-02-12T00:57:07.353Z,0.00
2019-02-12T00:58:07.334Z,0.00
2019-02-12T00:59:07.324Z,0.00
2019-02-12T01:00:07.323Z,0.00
2019-02-12T01:01:07.329Z,0.00
2019-02-12T01:02:07.301Z,0.00
2019-02-12T01:03:07.278Z,0.00
2019-02-12T01:04:07.270Z,0.00
2019-02-12T01:05:07.263Z,0.00
2019-02-12T01:06:07.288Z,0.00
2019-02-12T01:07:07.234Z,0.00
2019-02-12T01:08:07.224Z,0.00
2019-02-12T01:09:07.213Z,0.00
2019-02-12T01:10:07.201Z,0.00
2019-02-12T01:11:07.220Z,0.00
2019-02-12T01:12:07.208Z,0.00
2019-02-12T01:13:07.167Z,0.00
2019-02-12T01:14:07.159Z,0.00
2019-02-12T01:15:07.143Z,0.00
2019-02-12T01:16:07.158Z,0.00
2019-02-12T01:17:07.126Z,0.00
2019-02-12T01:18:07.127Z,0.00
2019-02-12T01:19:07.103Z,0.00
2019-02-12T01:20:07.091Z,0.00
2019-02-12T01:21:07.108Z,0.00
2019-02-12T01:22:07.065Z,0.00
2019-02-12T01:23:07.058Z,0.00
2019-02-12T01:24:07.045Z,0.00
2019-02-12T01:25:07.054Z,0.00
2019-02-12T01:26:07.049Z,0.00
2019-02-12T01:27:07.014Z,0.00
2019-02-12T01:28:07.003Z,0.00
2019-02-12T01:29:06.992Z,0.00
2019-02-12T01:30:06.977Z,0.00
2019-02-12T01:31:06.997Z,0.00
2019-02-12T01:32:06.972Z,0.00
2019-02-12T01:33:06.949Z,0.00
2019-02-12T01:34:06.938Z,0.00
2019-02-12T01:35:06.921Z,0.00
2019-02-12T01:36:06.911Z,0.00
2019-02-12T01:37:06.923Z,0.00
2019-02-12T01:38:06.898Z,0.00
2019-02-12T01:39:06.907Z,0.00
2019-02-12T01:40:06.865Z,0.00
2019-02-12T01:41:06.858Z,0.00
2019-02-12T01:42:06.868Z,0.00
2019-02-12T01:43:06.834Z,0.00
2019-02-12T01:44:06.821Z,0.00
2019-02-12T01:45:06.840Z,0.00
2019-02-12T01:46:06.799Z,0.00
2019-02-12T01:47:06.818Z,0.00
2019-02-12T01:48:06.775Z,0.00
2019-02-12T01:49:06.764Z,0.00
2019-02-12T01:50:06.757Z,0.00
2019-02-12T01:51:06.748Z,0.00
2019-02-12T01:52:06.754Z,0.00
2019-02-12T01:53:06.719Z,0.00
2019-02-12T01:54:06.708Z,0.00
2019-02-12T01:55:06.700Z,0.00
2019-02-12T01:56:06.686Z,0.00
2019-02-12T01:57:06.743Z,0.00
2019-02-12T01:58:06.664Z,0.00
2019-02-12T01:59:06.654Z,0.00
2019-02-12T02:00:06.647Z,0.00
2019-02-12T02:01:06.632Z,0.00
2019-02-12T02:02:06.644Z,0.00
2019-02-12T02:03:06.642Z,0.00
2019-02-12T02:04:06.599Z,0.00
2019-02-12T02:05:06.586Z,0.00
2019-02-12T02:06:06.576Z,0.00
2019-02-12T02:07:06.589Z,0.00
2019-02-12T02:08:06.554Z,0.00
2019-02-12T02:09:06.569Z,0.00
2019-02-12T02:10:06.531Z,0.00
2019-02-12T02:11:06.521Z,0.00
2019-02-12T02:12:06.530Z,0.00
2019-02-12T02:13:06.496Z,0.00
2019-02-12T02:14:06.487Z,0.00
2019-02-12T02:15:06.486Z,0.00
2019-02-12T02:16:06.463Z,0.00
2019-02-12T02:17:06.478Z,0.00
2019-02-12T02:18:06.444Z,0.00
2019-02-12T02:19:06.428Z,0.00
2019-02-12T02:20:06.419Z,0.00
2019-02-12T02:21:06.428Z,0.00
2019-02-12T02:22:06.421Z,0.00
2019-02-12T02:23:06.384Z,0.00
2019-02-12T02:24:06.373Z,0.00
2019-02-12T02:25:06.364Z,0.00
2019-02-12T02:26:06.356Z,0.00
2019-02-12T02:27:06.385Z,0.00
2019-02-12T02:28:06.329Z,0.00
2019-02-12T02:29:06.319Z,0.00
2019-02-12T02:30:06.312Z,0.00
2019-02-12T02:31:06.296Z,0.00
2019-02-12T02:32:06.311Z,0.00
2019-02-12T02:33:06.279Z,0.00
2019-02-12T02:34:06.264Z,0.00
2019-02-12T02:35:06.256Z,0.00
2019-02-12T02:36:06.247Z,0.00
2019-02-12T02:37:06.257Z,0.00
2019-02-12T02:38:06.219Z,0.00
2019-02-12T02:39:06.221Z,0.00
2019-02-12T02:40:06.210Z,0.00
2019-02-12T02:41:06.188Z,0.00
2019-02-12T02:42:06.204Z,0.00
2019-02-12T02:43:06.178Z,0.00
2019-02-12T02:44:06.152Z,0.00
2019-02-12T02:45:06.157Z,0.00
2019-02-12T02:46:06.129Z,0.00
2019-02-12T02:47:06.144Z,0.00
2019-02-12T02:48:06.113Z,0.00
2019-02-12T02:49:06.097Z,0.00
2019-02-12T02:50:06.093Z,0.00
2019-02-12T02:51:06.086Z,0.00
2019-02-12T02:52:06.107Z,0.00
2019-02-12T02:53:06.055Z,0.00
2019-02-12T02:54:06.045Z,0.00
2019-02-12T02:55:06.033Z,0.00
2019-02-12T02:56:06.024Z,0.00
2019-02-12T02:57:06.034Z,0.00
2019-02-12T02:58:06.006Z,0.00
2019-02-12T02:59:06.001Z,0.00
2019-02-12T03:00:05.980Z,0.00
2019-02-12T03:01:05.970Z,0.00
2019-02-12T03:02:05.981Z,0.00
2019-02-12T03:03:05.948Z,0.00
2019-02-12T03:04:05.939Z,0.00
2019-02-12T03:05:05.951Z,0.00
2019-02-12T03:06:05.917Z,0.00
2019-02-12T03:07:05.930Z,0.00
2019-02-12T03:08:05.894Z,0.00
2019-02-12T03:09:05.883Z,0.00
2019-02-12T03:10:05.874Z,0.00
2019-02-12T03:11:05.874Z,0.00
2019-02-12T03:12:05.876Z,0.00
2019-02-12T03:13:05.840Z,0.00
2019-02-12T03:14:05.837Z,0.00
2019-02-12T03:15:05.818Z,0.00
2019-02-12T03:16:05.807Z,0.00
2019-02-12T03:17:05.800Z,0.00
2019-02-12T03:18:05.830Z,0.00
2019-02-12T03:19:05.782Z,0.00
2019-02-12T03:20:05.761Z,0.00
2019-02-12T03:21:05.749Z,0.00
2019-02-12T03:22:05.739Z,0.00
2019-02-12T03:23:05.755Z,0.00
2019-02-12T03:24:05.732Z,0.00
2019-02-12T03:25:05.716Z,0.00
2019-02-12T03:26:05.736Z,0.00
2019-02-12T03:27:05.685Z,0.00
2019-02-12T03:28:05.697Z,0.00
2019-02-12T03:29:05.667Z,0.00
2019-02-12T03:30:05.666Z,0.00
2019-02-12T03:31:05.650Z,0.00
2019-02-12T03:32:05.630Z,0.00
2019-02-12T03:33:05.640Z,0.00
2019-02-12T03:34:05.606Z,0.00
2019-02-12T03:35:05.593Z,0.00
2019-02-12T03:36:05.590Z,0.00
2019-02-12T03:37:05.573Z,0.00
2019-02-12T03:38:05.582Z,0.00
2019-02-12T03:39:05.548Z,0.00
2019-02-12T03:40:05.538Z,0.00
2019-02-12T03:41:05.524Z,0.00
2019-02-12T03:42:05.537Z,0.00
2019-02-12T03:43:05.524Z,0.00
2019-02-12T03:44:05.492Z,0.00
2019-02-12T03:45:05.480Z,0.00
2019-02-12T03:46:05.470Z,0.00
2019-02-12T03:47:05.457Z,0.00
2019-02-12T03:48:05.492Z,0.00
2019-02-12T03:49:05.435Z,0.00
2019-02-12T03:50:05.423Z,0.00
2019-02-12T03:51:05.413Z,0.00
2019-02-12T03:52:12.679Z,0.00
2019-02-12T03:53:06.411Z,0.00
2019-02-12T03:54:05.401Z,0.00
2019-02-12T03:55:05.393Z,0.00
2019-02-12T03:56:05.364Z,0.00
2019-02-12T03:57:05.347Z,0.00
2019-02-12T03:58:05.357Z,0.00
2019-02-12T03:59:05.323Z,0.00
2019-02-12T04:00:05.321Z,0.00
2019-02-12T04:01:05.299Z,0.00
2019-02-12T04:02:05.291Z,0.00
2019-02-12T04:03:05.300Z,0.00
2019-02-12T04:04:05.267Z,0.00
2019-02-12T04:05:05.257Z,0.00
2019-02-12T04:06:05.268Z,0.00
2019-02-12T04:07:05.239Z,0.00
2019-02-12T04:08:05.247Z,0.00
2019-02-12T04:09:05.210Z,0.00
2019-02-12T04:10:05.200Z,0.00
2019-02-12T04:11:05.193Z,0.00
2019-02-12T04:12:05.214Z,0.00
2019-02-12T04:13:05.188Z,0.00
2019-02-12T04:14:05.161Z,0.00
2019-02-12T04:15:05.163Z,0.00
2019-02-12T04:16:05.145Z,0.00
2019-02-12T04:17:05.121Z,0.00
2019-02-12T04:18:05.147Z,0.00
2019-02-12T04:19:05.141Z,0.00
2019-02-12T04:20:05.089Z,0.00
2019-02-12T04:21:05.076Z,0.00
2019-02-12T04:22:05.065Z,0.00
2019-02-12T04:23:05.078Z,0.00
2019-02-12T04:24:05.042Z,0.00
2019-02-12T04:25:05.043Z,0.00
2019-02-12T04:26:05.021Z,0.00
2019-02-12T04:27:05.013Z,0.00
2019-02-12T04:28:05.024Z,0.00
2019-02-12T04:29:04.989Z,0.00
2019-02-12T04:30:04.977Z,0.00
2019-02-12T04:31:04.973Z,0.00
2019-02-12T04:32:04.963Z,0.00
2019-02-12T04:33:04.963Z,0.00
2019-02-12T04:34:04.931Z,0.00
2019-02-12T04:35:04.918Z,0.00
2019-02-12T04:36:04.910Z,0.00
2019-02-12T04:37:04.915Z,0.00
2019-02-12T04:38:04.907Z,0.00
2019-02-12T04:39:04.878Z,0.00
2019-02-12T04:40:04.864Z,0.00
2019-02-12T04:41:04.856Z,0.00
2019-02-12T04:42:04.842Z,0.00
2019-02-12T04:43:04.894Z,0.00
2019-02-12T04:44:04.820Z,0.00
2019-02-12T04:45:04.815Z,0.00
2019-02-12T04:46:04.797Z,0.00
2019-02-12T04:47:04.803Z,0.00
2019-02-12T04:48:04.799Z,0.00
2019-02-12T04:49:04.773Z,0.00
2019-02-12T04:50:04.752Z,0.00
2019-02-12T04:51:04.739Z,0.00
2019-02-12T04:52:04.727Z,0.00
2019-02-12T04:53:04.743Z,0.00
2019-02-12T04:54:04.708Z,0.00
2019-02-12T04:55:06.087Z,0.00
2019-02-12T04:56:04.684Z,0.00
2019-02-12T04:57:04.672Z,0.00
2019-02-12T04:58:04.662Z,0.00
2019-02-12T04:59:04.682Z,0.00
2019-02-12T05:00:04.639Z,0.00
2019-02-12T05:01:04.706Z,0.00
2019-02-12T05:02:04.621Z,0.00
2019-02-12T05:03:04.604Z,0.00
2019-02-12T05:04:04.617Z,0.00
2019-02-12T05:05:04.583Z,0.00
2019-02-12T05:06:04.576Z,0.00
2019-02-12T05:07:04.571Z,0.00
2019-02-12T05:08:04.551Z,0.00
2019-02-12T05:09:04.562Z,0.00
2019-02-12T05:10:04.527Z,0.00
2019-02-12T05:11:04.523Z,0.00
2019-02-12T05:12:04.504Z,0.00
2019-02-12T05:13:04.528Z,0.00
2019-02-12T05:14:04.506Z,0.00
2019-02-12T05:15:04.470Z,0.00
2019-02-12T05:16:04.458Z,0.00
2019-02-12T05:17:04.458Z,0.00
2019-02-12T05:18:04.439Z,0.00
2019-02-12T05:19:04.478Z,0.00
2019-02-12T05:20:04.418Z,0.00
2019-02-12T05:21:04.416Z,0.00
2019-02-12T05:22:04.394Z,0.00
2019-02-12T05:23:04.379Z,0.00
2019-02-12T05:24:04.396Z,0.00
2019-02-12T05:25:04.388Z,0.00
2019-02-12T05:26:04.348Z,0.00
2019-02-12T05:27:04.338Z,0.00
2019-02-12T05:28:04.325Z,0.00
2019-02-12T05:29:04.339Z,0.00
2019-02-12T05:30:04.301Z,0.00
2019-02-12T05:31:04.298Z,0.00
2019-02-12T05:32:04.290Z,0.00
2019-02-12T05:33:04.270Z,0.00
2019-02-12T05:34:04.284Z,0.00
2019-02-12T05:35:04.249Z,0.00
2019-02-12T05:36:04.236Z,0.00
2019-02-12T05:37:04.225Z,0.00
2019-02-12T05:38:04.227Z,0.00
2019-02-12T05:39:04.240Z,0.00
2019-02-12T05:40:04.207Z,0.00
2019-02-12T05:41:04.183Z,0.00
2019-02-12T05:42:04.171Z,0.00
2019-02-12T05:43:04.172Z,0.00
2019-02-12T05:44:04.197Z,0.00
2019-02-12T05:45:04.149Z,0.00
2019-02-12T05:46:04.129Z,0.00
2019-02-12T05:47:06.784Z,0.00
2019-02-12T05:48:04.108Z,0.00
2019-02-12T05:49:04.123Z,0.00
2019-02-12T05:50:04.102Z,0.00
2019-02-12T05:51:04.077Z,0.00
2019-02-12T05:52:04.065Z,0.00
2019-02-12T05:53:04.055Z,0.00
2019-02-12T05:54:04.068Z,0.00
2019-02-12T05:55:04.049Z,0.00
2019-02-12T05:56:04.030Z,0.00
2019-02-12T05:57:04.009Z,0.00
2019-02-12T05:58:03.998Z,0.00
2019-02-12T05:59:04.012Z,0.00
2019-02-12T06:00:03.985Z,0.00
2019-02-12T06:01:03.968Z,0.00
2019-02-12T06:02:03.988Z,0.00
2019-02-12T06:03:03.943Z,0.00
2019-02-12T06:04:03.959Z,0.00
2019-02-12T06:05:03.928Z,0.00
2019-02-12T06:06:03.916Z,0.00
2019-02-12T06:07:03.905Z,0.00
2019-02-12T06:08:03.902Z,0.00
2019-02-12T06:09:03.903Z,0.00
2019-02-12T06:10:03.869Z,0.00
2019-02-12T06:11:03.860Z,0.00
2019-02-12T06:12:03.845Z,0.00
2019-02-12T06:13:03.833Z,0.00
2019-02-12T06:14:03.863Z,0.00
2019-02-12T06:15:03.809Z,0.00
2019-02-12T06:16:03.801Z,0.00
2019-02-12T06:17:03.790Z,0.00
2019-02-12T06:18:03.779Z,0.00
2019-02-12T06:19:03.790Z,0.00
2019-02-12T06:20:03.765Z,0.00
2019-02-12T06:21:03.745Z,0.00
2019-02-12T06:22:03.739Z,0.00
2019-02-12T06:23:04.362Z,0.00
2019-02-12T06:24:03.734Z,0.00
2019-02-12T06:25:03.707Z,0.00
2019-02-12T06:26:03.704Z,0.00
2019-02-12T06:27:03.682Z,0.00
2019-02-12T06:28:03.668Z,0.00
2019-02-12T06:29:03.694Z,0.00
2019-02-12T06:30:03.648Z,0.00
2019-02-12T06:31:03.633Z,0.00
2019-02-12T06:32:03.627Z,0.00
2019-02-12T06:33:07.612Z,0.00
2019-02-12T06:34:03.626Z,0.00
2019-02-12T06:35:03.591Z,0.00
2019-02-12T06:36:03.580Z,0.00
2019-02-12T06:37:03.567Z,0.00
2019-02-12T06:38:03.555Z,0.00
2019-02-12T06:39:03.601Z,0.00
2019-02-12T06:40:03.534Z,0.00
2019-02-12T06:41:03.520Z,0.00
2019-02-12T06:42:03.515Z,0.00
2019-02-12T06:43:03.500Z,0.00
2019-02-12T06:44:03.493Z,0.00
2019-02-12T06:45:03.522Z,0.00
2019-02-12T06:46:03.470Z,0.00
2019-02-12T06:47:03.470Z,0.00
2019-02-12T06:48:03.461Z,0.00
2019-02-12T06:49:03.433Z,0.00
2019-02-12T06:50:03.443Z,0.00
2019-02-12T06:51:03.423Z,0.00
2019-02-12T06:52:03.406Z,0.00
2019-02-12T06:53:12.054Z,0.00
2019-02-12T06:54:04.377Z,0.00
2019-02-12T06:55:03.389Z,0.00
2019-02-12T06:56:03.382Z,0.00
2019-02-12T06:57:03.368Z,0.00
2019-02-12T06:58:03.333Z,5.62
2019-02-12T06:59:03.322Z,5.62
2019-02-12T07:00:03.337Z,5.62
2019-02-12T07:01:03.328Z,5.62
2019-02-12T07:02:03.307Z,5.62
2019-02-12T07:03:03.284Z,5.62
2019-02-12T07:04:03.270Z,5.62
2019-02-12T07:05:03.272Z,5.62
2019-02-12T07:06:03.271Z,11.25
2019-02-12T07:07:03.233Z,11.25
2019-02-12T07:08:03.222Z,11.25
2019-02-12T07:09:03.219Z,11.25
2019-02-12T07:10:03.263Z,11.25
2019-02-12T07:11:03.320Z,11.25
2019-02-12T07:12:03.185Z,11.25
2019-02-12T07:13:03.421Z,11.25
2019-02-12T07:14:03.171Z,11.25
2019-02-12T07:15:03.210Z,11.25
2019-02-12T07:16:03.132Z,11.25
2019-02-12T07:17:03.122Z,11.25
2019-02-12T07:18:03.110Z,11.25
2019-02-12T07:19:03.098Z,11.25
2019-02-12T07:20:03.143Z,11.25
2019-02-12T07:21:03.086Z,11.25
2019-02-12T07:22:03.162Z,11.25
2019-02-12T07:23:03.053Z,16.88
2019-02-12T07:24:03.041Z,16.88
2019-02-12T07:25:03.090Z,16.88
2019-02-12T07:26:03.025Z,22.50
2019-02-12T07:27:03.009Z,22.50
2019-02-12T07:28:03.017Z,22.50
2019-02-12T07:29:02.993Z,22.50
2019-02-12T07:30:03.016Z,28.12
2019-02-12T07:31:02.974Z,28.12
2019-02-12T07:32:02.953Z,28.12
2019-02-12T07:33:03.003Z,28.12
2019-02-12T07:34:02.945Z,28.12
2019-02-12T07:35:02.943Z,28.12
2019-02-12T07:36:02.909Z,33.75
2019-02-12T07:37:02.902Z,33.75
2019-02-12T07:38:02.886Z,39.38
2019-02-12T07:39:02.882Z,39.38
2019-02-12T07:40:02.917Z,39.38
2019-02-12T07:41:02.857Z,45.00
2019-02-12T07:42:02.846Z,45.00
2019-02-12T07:43:02.831Z,45.00
2019-02-12T07:44:02.882Z,45.00
2019-02-12T07:45:02.832Z,50.62
2019-02-12T07:46:02.803Z,50.62
2019-02-12T07:47:02.795Z,45.00
2019-02-12T07:48:02.804Z,39.38
2019-02-12T07:49:02.766Z,33.75
2019-02-12T07:50:02.781Z,33.75
2019-02-12T07:51:02.744Z,33.75
2019-02-12T07:52:02.731Z,39.38
2019-02-12T07:53:02.797Z,45.00
2019-02-12T07:54:02.716Z,50.62
2019-02-12T07:55:02.721Z,45.00
2019-02-12T07:56:02.691Z,50.62
2019-02-12T07:57:02.677Z,56.25
2019-02-12T07:58:02.929Z,50.62
2019-02-12T07:59:02.700Z,56.25
2019-02-12T08:00:02.754Z,61.88
2019-02-12T08:01:02.664Z,61.88
2019-02-12T08:02:02.656Z,56.25
2019-02-12T08:03:02.639Z,56.25
2019-02-12T08:04:02.689Z,67.50
2019-02-12T08:05:02.670Z,73.12
2019-02-12T08:06:02.587Z,61.88
2019-02-12T08:07:02.574Z,56.25
2019-02-12T08:08:02.562Z,56.25
2019-02-12T08:09:02.546Z,56.25
2019-02-12T08:10:02.556Z,50.62
2019-02-12T08:11:02.545Z,45.00
2019-02-12T08:12:02.513Z,50.62
2019-02-12T08:13:02.521Z,67.50
2019-02-12T08:14:02.490Z,61.88
2019-02-12T08:15:02.515Z,56.25
2019-02-12T08:16:02.485Z,56.25
2019-02-12T08:17:02.487Z,61.88
2019-02-12T08:18:02.471Z,67.50
2019-02-12T08:19:02.446Z,56.25
2019-02-12T08:20:02.494Z,56.25
2019-02-12T08:21:02.445Z,56.25
2019-02-12T08:22:02.435Z,56.25
2019-02-12T08:23:02.415Z,67.50
2019-02-12T08:24:02.376Z,61.88
2019-02-12T08:25:02.367Z,50.62
2019-02-12T08:26:02.380Z,50.62
2019-02-12T08:27:02.396Z,50.62
2019-02-12T08:28:02.345Z,67.50
2019-02-12T08:29:02.358Z,73.12
2019-02-12T08:30:02.313Z,61.88
2019-02-12T08:31:02.324Z,56.25
2019-02-12T08:32:02.289Z,56.25
2019-02-12T08:33:02.276Z,50.62
2019-02-12T08:34:02.269Z,50.62
2019-02-12T08:35:02.259Z,61.88
2019-02-12T08:36:02.270Z,73.12
2019-02-12T08:37:02.233Z,67.50
2019-02-12T08:38:02.247Z,90.00
2019-02-12T08:39:02.213Z,101.25
2019-02-12T08:40:02.200Z,101.25
2019-02-12T08:41:02.221Z,101.25
2019-02-12T08:42:02.177Z,112.50
2019-02-12T08:43:02.190Z,129.38
2019-02-12T08:44:02.155Z,146.25
2019-02-12T08:45:02.146Z,151.88
2019-02-12T08:46:02.157Z,151.88
2019-02-12T08:47:02.141Z,157.50
2019-02-12T08:48:02.112Z,151.88
2019-02-12T08:49:02.107Z,151.88
2019-02-12T08:50:02.094Z,140.62
2019-02-12T08:51:02.112Z,118.12
2019-02-12T08:52:02.072Z,106.88
2019-02-12T08:53:02.079Z,101.25
2019-02-12T08:54:02.048Z,101.25
2019-02-12T08:55:02.038Z,101.25
2019-02-12T08:56:02.114Z,101.25
2019-02-12T08:57:02.012Z,101.25
2019-02-12T08:58:02.005Z,101.25
2019-02-12T08:59:02.016Z,101.25
2019-02-12T09:00:03.628Z,118.12
2019-02-12T09:01:02.004Z,123.75
2019-02-12T09:02:01.960Z,118.12
2019-02-12T09:03:01.949Z,129.38
2019-02-12T09:04:01.939Z,135.00
2019-02-12T09:05:01.973Z,129.38
2019-02-12T09:06:03.851Z,118.12
2019-02-12T09:07:01.905Z,106.88
2019-02-12T09:08:01.893Z,101.25
2019-02-12T09:09:01.883Z,95.62
2019-02-12T09:10:01.881Z,101.25
2019-02-12T09:11:01.956Z,106.88
2019-02-12T09:12:01.849Z,101.25
2019-02-12T09:13:01.861Z,106.88
2019-02-12T09:14:01.851Z,106.88
2019-02-12T09:15:01.831Z,106.88
2019-02-12T09:16:01.832Z,101.25
2019-02-12T09:17:01.839Z,101.25
2019-02-12T09:18:01.788Z,101.25
2019-02-12T09:19:01.781Z,112.50
2019-02-12T09:20:01.772Z,118.12
2019-02-12T09:21:01.775Z,123.75
2019-02-12T09:22:01.742Z,129.38
2019-02-12T09:23:01.742Z,135.00
2019-02-12T09:24:03.504Z,140.62
2019-02-12T09:25:01.719Z,135.00
2019-02-12T09:26:01.726Z,135.00
2019-02-12T09:27:01.692Z,140.62
2019-02-12T09:28:01.708Z,129.38
2019-02-12T09:29:01.695Z,123.75
2019-02-12T09:30:01.710Z,118.12
2019-02-12T09:31:01.684Z,112.50
2019-02-12T09:32:01.633Z,112.50
2019-02-12T09:33:01.631Z,118.12
2019-02-12T09:34:01.618Z,129.38
2019-02-12T09:35:01.624Z,135.00
2019-02-12T09:36:01.628Z,151.88
2019-02-12T09:37:01.581Z,151.88
2019-02-12T09:38:01.569Z,151.88
2019-02-12T09:39:01.555Z,151.88
2019-02-12T09:40:01.545Z,146.25
2019-02-12T09:41:01.625Z,146.25
2019-02-12T09:42:01.522Z,151.88
2019-02-12T09:43:01.511Z,146.25
2019-02-12T09:44:01.500Z,146.25
2019-02-12T09:45:01.495Z,140.62
2019-02-12T09:46:01.502Z,146.25
2019-02-12T09:47:01.470Z,157.50
2019-02-12T09:48:01.463Z,157.50
2019-02-12T09:49:01.453Z,140.62
2019-02-12T09:50:01.457Z,146.25
2019-02-12T09:51:01.497Z,140.62
2019-02-12T09:52:01.412Z,129.38
2019-02-12T09:53:01.450Z,123.75
2019-02-12T09:54:08.633Z,129.38
2019-02-12T09:55:02.380Z,146.25
2019-02-12T09:56:01.426Z,168.75
2019-02-12T09:57:01.367Z,196.88
2019-02-12T09:58:01.357Z,208.12
2019-02-12T09:59:01.337Z,219.38
2019-02-12T10:00:01.369Z,202.50
2019-02-12T10:01:01.342Z,163.12
2019-02-12T10:02:01.303Z,157.50
2019-02-12T10:03:01.293Z,151.88
2019-02-12T10:04:01.283Z,140.62
2019-02-12T10:05:01.267Z,129.38
2019-02-12T10:06:01.311Z,123.75
2019-02-12T10:07:01.247Z,118.12
2019-02-12T10:08:01.242Z,123.75
2019-02-12T10:09:01.357Z,118.12
2019-02-12T10:10:01.217Z,118.12
2019-02-12T10:11:01.205Z,118.12
2019-02-12T10:12:01.216Z,106.88
2019-02-12T10:13:01.257Z,106.88
2019-02-12T10:14:01.168Z,101.25
2019-02-12T10:15:01.159Z,101.25
2019-02-12T10:16:01.151Z,101.25
2019-02-12T10:17:01.166Z,101.25
2019-02-12T10:18:01.123Z,106.88
2019-02-12T10:19:01.111Z,118.12
2019-02-12T10:20:01.124Z,123.75
2019-02-12T10:21:01.095Z,129.38
2019-02-12T10:22:01.107Z,135.00
2019-02-12T10:23:01.080Z,146.25
2019-02-12T10:24:01.057Z,151.88
2019-02-12T10:25:01.048Z,163.12
2019-02-12T10:26:01.043Z,168.75
2019-02-12T10:27:01.059Z,180.00
2019-02-12T10:28:01.014Z,191.25
2019-02-12T10:29:01.008Z,208.12
2019-02-12T10:30:00.991Z,225.00
2019-02-12T10:31:00.981Z,247.50
2019-02-12T10:32:08.494Z,275.62
2019-02-12T10:33:01.957Z,309.38
2019-02-12T10:34:00.946Z,343.12
2019-02-12T10:35:00.948Z,360.00
2019-02-12T10:36:00.923Z,348.75
2019-02-12T10:37:00.947Z,348.75
2019-02-12T10:38:01.038Z,337.50
2019-02-12T10:39:00.889Z,320.62
2019-02-12T10:40:00.879Z,298.12
2019-02-12T10:41:00.887Z,286.88
2019-02-12T10:42:00.886Z,270.00
2019-02-12T10:43:00.849Z,264.38
2019-02-12T10:44:00.850Z,258.75
2019-02-12T10:45:00.823Z,247.50
2019-02-12T10:46:00.813Z,241.88
2019-02-12T10:47:00.833Z,236.25
2019-02-12T10:48:00.789Z,236.25
2019-02-12T10:49:00.779Z,241.88
2019-02-12T10:50:00.771Z,258.75
2019-02-12T10:51:00.758Z,270.00
2019-02-12T10:52:00.768Z,281.25
2019-02-12T10:53:00.748Z,281.25
2019-02-12T10:54:00.724Z,270.00
2019-02-12T10:55:00.715Z,281.25
2019-02-12T10:56:00.702Z,270.00
2019-02-12T10:57:00.730Z,258.75
2019-02-12T10:58:00.683Z,253.12
2019-02-12T10:59:00.679Z,247.50
2019-02-12T11:00:00.657Z,253.12
2019-02-12T11:01:00.651Z,253.12
2019-02-12T11:02:00.660Z,258.75
2019-02-12T11:03:00.624Z,236.25
2019-02-12T11:04:00.615Z,225.00
2019-02-12T11:05:00.615Z,230.62
2019-02-12T11:06:00.591Z,270.00
2019-02-12T11:07:00.604Z,309.38
2019-02-12T11:08:00.574Z,326.25
2019-02-12T11:09:00.557Z,315.00
2019-02-12T11:10:00.546Z,309.38
2019-02-12T11:11:00.543Z,292.50
2019-02-12T11:12:00.561Z,298.12
2019-02-12T11:13:00.534Z,292.50
2019-02-12T11:14:00.505Z,292.50
2019-02-12T11:15:00.492Z,292.50
2019-02-12T11:16:00.481Z,298.12
2019-02-12T11:17:00.504Z,281.25
2019-02-12T11:18:00.464Z,270.00
2019-02-12T11:19:00.470Z,236.25
2019-02-12T11:20:00.437Z,286.88
2019-02-12T11:21:00.425Z,309.38
2019-02-12T11:22:00.443Z,286.88
2019-02-12T11:23:00.404Z,253.12
2019-02-12T11:24:00.396Z,236.25
2019-02-12T11:25:00.395Z,275.62
2019-02-12T11:26:00.411Z,309.38
2019-02-12T11:27:00.394Z,298.12
2019-02-12T11:28:00.370Z,309.38
2019-02-12T11:29:00.341Z,298.12
2019-02-12T11:30:00.325Z,281.25
2019-02-12T11:31:00.322Z,264.38
2019-02-12T11:32:00.331Z,281.25
2019-02-12T11:33:00.292Z,292.50
2019-02-12T11:34:00.284Z,286.88
2019-02-12T11:35:00.287Z,286.88
2019-02-12T11:36:00.267Z,281.25
2019-02-12T11:37:00.274Z,309.38
2019-02-12T11:38:00.237Z,331.88
2019-02-12T11:39:00.230Z,337.50
2019-02-12T11:40:00.233Z,343.12
2019-02-12T11:41:00.220Z,348.75
2019-02-12T11:42:00.220Z,315.00
2019-02-12T11:43:00.184Z,292.50
2019-02-12T11:44:00.174Z,320.62
2019-02-12T11:45:00.271Z,331.88
2019-02-12T11:46:00.183Z,303.75
2019-02-12T11:47:00.206Z,320.62
2019-02-12T11:48:00.129Z,354.38
2019-02-12T11:49:00.122Z,343.12
2019-02-12T11:50:00.123Z,320.62
2019-02-12T11:51:00.120Z,320.62
2019-02-12T11:52:00.107Z,337.50
2019-02-12T11:53:00.105Z,348.75
2019-02-12T11:54:00.065Z,331.88
2019-02-12T11:55:00.052Z,331.88
2019-02-12T11:56:00.041Z,343.12
2019-02-12T11:57:00.032Z,326.25
2019-02-12T11:58:00.086Z,309.38
2019-02-12T11:59:00.005Z,303.75
2019-02-12T11:59:59.994Z,320.62
2019-02-12T12:00:59.985Z,331.88
2019-02-12T12:01:59.972Z,326.25
2019-02-12T12:03:00.003Z,326.25
2019-02-12T12:03:59.954Z,320.62
2019-02-12T12:04:59.998Z,320.62
2019-02-12T12:05:59.933Z,331.88
2019-02-12T12:06:59.922Z,343.12
2019-02-12T12:07:59.956Z,337.50
2019-02-12T12:08:59.903Z,326.25
2019-02-12T12:09:59.885Z,331.88
2019-02-12T12:10:59.870Z,337.50
2019-02-12T12:11:59.862Z,343.12
2019-02-12T12:12:59.878Z,348.75
2019-02-12T12:13:59.847Z,354.38
2019-02-12T12:14:59.834Z,348.75
2019-02-12T12:15:59.817Z,360.00
2019-02-12T12:16:59.816Z,360.00
2019-02-12T12:17:59.858Z,354.38
2019-02-12T12:18:59.819Z,365.62
2019-02-12T12:19:59.814Z,365.62
2019-02-12T12:20:59.816Z,371.25
2019-02-12T12:21:59.750Z,365.62
2019-02-12T12:22:59.774Z,354.38
2019-02-12T12:23:59.742Z,343.12
2019-02-12T12:24:59.715Z,343.12
2019-02-12T12:25:59.716Z,348.75
2019-02-12T12:26:59.692Z,360.00
2019-02-12T12:27:59.759Z,360.00
2019-02-12T12:28:59.672Z,348.75
2019-02-12T12:29:59.667Z,348.75
2019-02-12T12:30:59.649Z,354.38
2019-02-12T12:31:59.644Z,360.00
2019-02-12T12:32:59.677Z,360.00
2019-02-12T12:33:59.616Z,348.75
2019-02-12T12:34:59.643Z,337.50
2019-02-12T12:35:59.623Z,320.62
2019-02-12T12:36:59.613Z,320.62
2019-02-12T12:37:59.600Z,331.88
2019-02-12T12:38:59.559Z,331.88
2019-02-12T12:39:59.586Z,337.50
2019-02-12T12:40:59.537Z,343.12
2019-02-12T12:41:59.550Z,337.50
2019-02-12T12:42:59.581Z,337.50
2019-02-12T12:43:59.574Z,343.12
2019-02-12T12:44:59.503Z,331.88
2019-02-12T12:45:59.480Z,320.62
2019-02-12T12:46:59.475Z,298.12
2019-02-12T12:47:59.487Z,292.50
2019-02-12T12:48:59.448Z,292.50
2019-02-12T12:49:59.442Z,281.25
2019-02-12T12:50:59.466Z,270.00
2019-02-12T12:51:59.414Z,270.00
2019-02-12T12:52:59.433Z,270.00
2019-02-12T12:53:59.452Z,275.62
2019-02-12T12:55:00.078Z,292.50
2019-02-12T12:55:59.374Z,309.38
2019-02-12T12:56:59.361Z,331.88
2019-02-12T12:57:59.423Z,343.12